sensor_id;sensor_type;location;lat;lon;timestamp;P1;durP1;ratioP1;P2;durP2;ratioP2
18142;SDS011;9197;50.930;3.140;2022-11-28T00:02:21;23.17;;;18.13;;
18142;SDS011;9197;50.930;3.140;2022-11-28T00:04:51;22.97;;;17.50;;
18142;SDS011;9197;50.930;3.140;2022-11-28T00:07:19;21.67;;;17.47;;
18142;SDS011;9197;50.930;3.140;2022-11-28T00:09:46;23.33;;;18.73;;
18142;SDS011;9197;50.930;3.140;2022-11-28T00:12:13;25.90;;;18.30;;
18142;SDS011;9197;50.930;3.140;2022-11-28T00:14:40;20.93;;;18.00;;
18142;SDS011;9197;50.930;3.140;2022-11-28T00:17:07;28.73;;;19.33;;
18142;SDS011;9197;50.930;3.140;2022-11-28T00:19:36;24.60;;;17.60;;
18142;SDS011;9197;50.930;3.140;2022-11-28T00:22:03;20.57;;;17.70;;
18142;SDS011;9197;50.930;3.140;2022-11-28T00:24:30;22.53;;;17.70;;
18142;SDS011;9197;50.930;3.140;2022-11-28T00:26:57;24.13;;;18.90;;
18142;SDS011;9197;50.930;3.140;2022-11-28T00:29:25;24.40;;;18.00;;
18142;SDS011;9197;50.930;3.140;2022-11-28T00:31:52;26.13;;;18.57;;
18142;SDS011;9197;50.930;3.140;2022-11-28T00:34:19;27.80;;;18.17;;
18142;SDS011;9197;50.930;3.140;2022-11-28T00:36:47;21.33;;;17.23;;
18142;SDS011;9197;50.930;3.140;2022-11-28T00:39:15;24.00;;;17.47;;
18142;SDS011;9197;50.930;3.140;2022-11-28T00:41:42;22.97;;;17.63;;
18142;SDS011;9197;50.930;3.140;2022-11-28T00:44:10;20.37;;;18.17;;
18142;SDS011;9197;50.930;3.140;2022-11-28T00:46:37;23.20;;;18.53;;
18142;SDS011;9197;50.930;3.140;2022-11-28T00:49:04;25.20;;;17.73;;
18142;SDS011;9197;50.930;3.140;2022-11-28T00:51:32;24.20;;;19.73;;
18142;SDS011;9197;50.930;3.140;2022-11-28T00:54:01;28.90;;;19.37;;
18142;SDS011;9197;50.930;3.140;2022-11-28T00:56:29;26.67;;;18.23;;
18142;SDS011;9197;50.930;3.140;2022-11-28T00:58:57;27.63;;;19.27;;
18142;SDS011;9197;50.930;3.140;2022-11-28T01:01:25;24.87;;;18.63;;
18142;SDS011;9197;50.930;3.140;2022-11-28T01:03:53;25.17;;;18.90;;
18142;SDS011;9197;50.930;3.140;2022-11-28T01:06:21;27.70;;;19.17;;
18142;SDS011;9197;50.930;3.140;2022-11-28T01:08:48;23.60;;;20.30;;
18142;SDS011;9197;50.930;3.140;2022-11-28T01:11:17;26.10;;;18.87;;
18142;SDS011;9197;50.930;3.140;2022-11-28T01:13:45;24.37;;;18.73;;
18142;SDS011;9197;50.930;3.140;2022-11-28T01:16:12;27.67;;;18.60;;
18142;SDS011;9197;50.930;3.140;2022-11-28T01:18:39;24.70;;;20.13;;
18142;SDS011;9197;50.930;3.140;2022-11-28T01:21:07;23.93;;;18.87;;
18142;SDS011;9197;50.930;3.140;2022-11-28T01:23:34;22.57;;;18.83;;
18142;SDS011;9197;50.930;3.140;2022-11-28T01:26:02;25.90;;;18.27;;
18142;SDS011;9197;50.930;3.140;2022-11-28T01:28:31;25.13;;;19.57;;
18142;SDS011;9197;50.930;3.140;2022-11-28T01:31:01;25.20;;;19.43;;
18142;SDS011;9197;50.930;3.140;2022-11-28T01:33:28;25.63;;;18.90;;
18142;SDS011;9197;50.930;3.140;2022-11-28T01:35:56;27.53;;;21.83;;
18142;SDS011;9197;50.930;3.140;2022-11-28T01:38:23;25.27;;;20.83;;
18142;SDS011;9197;50.930;3.140;2022-11-28T01:40:51;28.17;;;21.53;;
18142;SDS011;9197;50.930;3.140;2022-11-28T01:43:18;30.00;;;20.63;;
18142;SDS011;9197;50.930;3.140;2022-11-28T01:45:47;32.63;;;22.67;;
18142;SDS011;9197;50.930;3.140;2022-11-28T01:48:14;35.37;;;22.83;;
18142;SDS011;9197;50.930;3.140;2022-11-28T01:50:43;37.63;;;24.80;;
18142;SDS011;9197;50.930;3.140;2022-11-28T01:53:11;34.30;;;25.17;;
18142;SDS011;9197;50.930;3.140;2022-11-28T01:55:40;35.33;;;25.43;;
18142;SDS011;9197;50.930;3.140;2022-11-28T01:58:08;37.53;;;26.00;;
18142;SDS011;9197;50.930;3.140;2022-11-28T02:00:35;36.30;;;26.67;;
18142;SDS011;9197;50.930;3.140;2022-11-28T02:03:05;35.50;;;25.90;;
18142;SDS011;9197;50.930;3.140;2022-11-28T02:05:34;34.17;;;24.37;;
18142;SDS011;9197;50.930;3.140;2022-11-28T02:08:01;34.53;;;25.37;;
18142;SDS011;9197;50.930;3.140;2022-11-28T02:10:31;38.40;;;25.40;;
18142;SDS011;9197;50.930;3.140;2022-11-28T02:13:15;35.23;;;25.90;;
18142;SDS011;9197;50.930;3.140;2022-11-28T02:15:52;30.93;;;24.43;;
18142;SDS011;9197;50.930;3.140;2022-11-28T02:18:26;33.73;;;25.13;;
18142;SDS011;9197;50.930;3.140;2022-11-28T02:21:02;37.90;;;24.37;;
18142;SDS011;9197;50.930;3.140;2022-11-28T02:23:36;39.13;;;24.57;;
18142;SDS011;9197;50.930;3.140;2022-11-28T02:26:09;33.03;;;24.03;;
18142;SDS011;9197;50.930;3.140;2022-11-28T02:31:27;40.30;;;24.50;;
18142;SDS011;9197;50.930;3.140;2022-11-28T02:34:01;39.97;;;25.73;;
18142;SDS011;9197;50.930;3.140;2022-11-28T02:36:30;36.30;;;24.83;;
18142;SDS011;9197;50.930;3.140;2022-11-28T02:39:01;39.23;;;24.93;;
18142;SDS011;9197;50.930;3.140;2022-11-28T02:41:30;35.73;;;25.30;;
18142;SDS011;9197;50.930;3.140;2022-11-28T02:44:01;41.87;;;24.87;;
18142;SDS011;9197;50.930;3.140;2022-11-28T02:46:33;40.87;;;25.37;;
18142;SDS011;9197;50.930;3.140;2022-11-28T02:49:05;36.10;;;24.67;;
18142;SDS011;9197;50.930;3.140;2022-11-28T02:51:35;43.63;;;25.67;;
18142;SDS011;9197;50.930;3.140;2022-11-28T02:54:04;38.63;;;25.83;;
18142;SDS011;9197;50.930;3.140;2022-11-28T02:56:32;39.13;;;26.33;;
18142;SDS011;9197;50.930;3.140;2022-11-28T02:58:59;36.37;;;26.17;;
18142;SDS011;9197;50.930;3.140;2022-11-28T03:01:27;40.43;;;26.83;;
18142;SDS011;9197;50.930;3.140;2022-11-28T03:04:16;64.93;;;28.83;;
18142;SDS011;9197;50.930;3.140;2022-11-28T03:06:51;45.57;;;26.73;;
18142;SDS011;9197;50.930;3.140;2022-11-28T03:09:25;40.63;;;27.23;;
18142;SDS011;9197;50.930;3.140;2022-11-28T03:12:02;37.33;;;26.13;;
18142;SDS011;9197;50.930;3.140;2022-11-28T03:14:36;37.47;;;25.67;;
18142;SDS011;9197;50.930;3.140;2022-11-28T03:17:10;42.33;;;25.90;;
18142;SDS011;9197;50.930;3.140;2022-11-28T03:19:41;38.87;;;25.73;;
18142;SDS011;9197;50.930;3.140;2022-11-28T03:22:11;38.37;;;24.90;;
18142;SDS011;9197;50.930;3.140;2022-11-28T03:24:40;37.20;;;25.40;;
18142;SDS011;9197;50.930;3.140;2022-11-28T03:27:10;36.97;;;26.57;;
18142;SDS011;9197;50.930;3.140;2022-11-28T03:29:40;35.87;;;25.73;;
18142;SDS011;9197;50.930;3.140;2022-11-28T03:32:09;38.07;;;26.57;;
18142;SDS011;9197;50.930;3.140;2022-11-28T03:34:38;36.73;;;24.77;;
18142;SDS011;9197;50.930;3.140;2022-11-28T03:37:10;36.90;;;24.53;;
18142;SDS011;9197;50.930;3.140;2022-11-28T03:39:40;39.67;;;25.73;;
18142;SDS011;9197;50.930;3.140;2022-11-28T03:42:11;38.47;;;24.53;;
18142;SDS011;9197;50.930;3.140;2022-11-28T03:44:46;35.70;;;25.87;;
18142;SDS011;9197;50.930;3.140;2022-11-28T03:47:14;36.07;;;24.00;;
18142;SDS011;9197;50.930;3.140;2022-11-28T03:49:42;36.20;;;22.97;;
18142;SDS011;9197;50.930;3.140;2022-11-28T03:52:13;32.80;;;23.07;;
18142;SDS011;9197;50.930;3.140;2022-11-28T03:54:44;32.80;;;24.17;;
18142;SDS011;9197;50.930;3.140;2022-11-28T03:57:14;30.97;;;23.43;;
18142;SDS011;9197;50.930;3.140;2022-11-28T03:59:44;31.80;;;22.80;;
18142;SDS011;9197;50.930;3.140;2022-11-28T04:02:14;27.40;;;22.07;;
18142;SDS011;9197;50.930;3.140;2022-11-28T04:04:48;24.77;;;20.07;;
18142;SDS011;9197;50.930;3.140;2022-11-28T04:07:20;29.20;;;21.47;;
18142;SDS011;9197;50.930;3.140;2022-11-28T04:09:49;24.13;;;18.53;;
18142;SDS011;9197;50.930;3.140;2022-11-28T04:12:19;24.57;;;18.87;;
18142;SDS011;9197;50.930;3.140;2022-11-28T04:14:48;21.77;;;17.53;;
18142;SDS011;9197;50.930;3.140;2022-11-28T04:17:18;21.17;;;18.17;;
18142;SDS011;9197;50.930;3.140;2022-11-28T04:19:46;20.63;;;16.33;;
18142;SDS011;9197;50.930;3.140;2022-11-28T04:22:16;19.17;;;16.80;;
18142;SDS011;9197;50.930;3.140;2022-11-28T04:24:47;21.27;;;17.23;;
18142;SDS011;9197;50.930;3.140;2022-11-28T04:27:16;19.47;;;16.90;;
18142;SDS011;9197;50.930;3.140;2022-11-28T04:29:48;21.13;;;17.27;;
18142;SDS011;9197;50.930;3.140;2022-11-28T04:32:15;22.17;;;18.17;;
18142;SDS011;9197;50.930;3.140;2022-11-28T04:34:44;23.60;;;17.80;;
18142;SDS011;9197;50.930;3.140;2022-11-28T04:37:13;20.10;;;16.60;;
18142;SDS011;9197;50.930;3.140;2022-11-28T04:39:41;21.90;;;16.90;;
18142;SDS011;9197;50.930;3.140;2022-11-28T04:42:10;19.10;;;16.47;;
18142;SDS011;9197;50.930;3.140;2022-11-28T04:44:41;23.00;;;17.97;;
18142;SDS011;9197;50.930;3.140;2022-11-28T04:47:10;25.60;;;18.33;;
18142;SDS011;9197;50.930;3.140;2022-11-28T04:49:37;23.10;;;18.03;;
18142;SDS011;9197;50.930;3.140;2022-11-28T04:52:05;25.77;;;18.03;;
18142;SDS011;9197;50.930;3.140;2022-11-28T04:54:38;23.47;;;18.93;;
18142;SDS011;9197;50.930;3.140;2022-11-28T04:57:12;26.67;;;18.03;;
18142;SDS011;9197;50.930;3.140;2022-11-28T04:59:40;27.47;;;18.80;;
18142;SDS011;9197;50.930;3.140;2022-11-28T05:02:08;22.43;;;17.17;;
18142;SDS011;9197;50.930;3.140;2022-11-28T05:04:36;24.07;;;17.10;;
18142;SDS011;9197;50.930;3.140;2022-11-28T05:07:04;22.00;;;16.33;;
18142;SDS011;9197;50.930;3.140;2022-11-28T05:09:31;26.33;;;16.93;;
18142;SDS011;9197;50.930;3.140;2022-11-28T05:11:58;27.93;;;16.57;;
18142;SDS011;9197;50.930;3.140;2022-11-28T05:14:27;23.87;;;16.80;;
18142;SDS011;9197;50.930;3.140;2022-11-28T05:16:54;24.03;;;17.13;;
18142;SDS011;9197;50.930;3.140;2022-11-28T05:19:21;21.50;;;16.07;;
18142;SDS011;9197;50.930;3.140;2022-11-28T05:21:48;21.97;;;16.30;;
18142;SDS011;9197;50.930;3.140;2022-11-28T05:24:17;22.10;;;16.63;;
18142;SDS011;9197;50.930;3.140;2022-11-28T05:26:44;21.87;;;16.67;;
18142;SDS011;9197;50.930;3.140;2022-11-28T05:29:11;24.70;;;17.10;;
18142;SDS011;9197;50.930;3.140;2022-11-28T05:31:40;25.97;;;17.53;;
18142;SDS011;9197;50.930;3.140;2022-11-28T05:34:07;26.63;;;16.27;;
18142;SDS011;9197;50.930;3.140;2022-11-28T05:36:34;26.27;;;16.27;;
18142;SDS011;9197;50.930;3.140;2022-11-28T05:39:02;24.13;;;16.40;;
18142;SDS011;9197;50.930;3.140;2022-11-28T05:41:30;20.73;;;16.23;;
18142;SDS011;9197;50.930;3.140;2022-11-28T05:43:57;21.47;;;16.87;;
18142;SDS011;9197;50.930;3.140;2022-11-28T05:46:27;24.03;;;17.80;;
18142;SDS011;9197;50.930;3.140;2022-11-28T05:48:55;25.03;;;16.87;;
18142;SDS011;9197;50.930;3.140;2022-11-28T05:51:23;22.00;;;16.77;;
18142;SDS011;9197;50.930;3.140;2022-11-28T05:53:50;24.37;;;17.40;;
18142;SDS011;9197;50.930;3.140;2022-11-28T05:56:18;35.47;;;18.50;;
18142;SDS011;9197;50.930;3.140;2022-11-28T05:58:47;24.53;;;16.90;;
18142;SDS011;9197;50.930;3.140;2022-11-28T06:01:15;25.97;;;18.27;;
18142;SDS011;9197;50.930;3.140;2022-11-28T06:03:42;24.63;;;16.90;;
18142;SDS011;9197;50.930;3.140;2022-11-28T06:06:11;24.67;;;17.17;;
18142;SDS011;9197;50.930;3.140;2022-11-28T06:08:39;25.20;;;18.23;;
18142;SDS011;9197;50.930;3.140;2022-11-28T06:11:06;21.97;;;16.23;;
18142;SDS011;9197;50.930;3.140;2022-11-28T06:13:33;24.13;;;16.37;;
18142;SDS011;9197;50.930;3.140;2022-11-28T06:16:01;19.80;;;15.03;;
18142;SDS011;9197;50.930;3.140;2022-11-28T06:18:28;20.53;;;15.23;;
18142;SDS011;9197;50.930;3.140;2022-11-28T06:20:55;23.10;;;15.83;;
18142;SDS011;9197;50.930;3.140;2022-11-28T06:23:24;21.63;;;15.23;;
18142;SDS011;9197;50.930;3.140;2022-11-28T06:25:51;25.00;;;15.20;;
18142;SDS011;9197;50.930;3.140;2022-11-28T06:28:18;26.10;;;15.47;;
18142;SDS011;9197;50.930;3.140;2022-11-28T06:30:45;19.93;;;15.17;;
18142;SDS011;9197;50.930;3.140;2022-11-28T06:33:12;21.20;;;13.90;;
18142;SDS011;9197;50.930;3.140;2022-11-28T06:35:39;19.43;;;13.83;;
18142;SDS011;9197;50.930;3.140;2022-11-28T06:38:07;17.30;;;12.70;;
18142;SDS011;9197;50.930;3.140;2022-11-28T06:40:36;19.07;;;13.40;;
18142;SDS011;9197;50.930;3.140;2022-11-28T06:43:03;20.40;;;13.50;;
18142;SDS011;9197;50.930;3.140;2022-11-28T06:45:31;20.83;;;13.17;;
18142;SDS011;9197;50.930;3.140;2022-11-28T06:47:59;22.47;;;12.80;;
18142;SDS011;9197;50.930;3.140;2022-11-28T06:50:26;16.17;;;13.13;;
18142;SDS011;9197;50.930;3.140;2022-11-28T06:52:53;20.43;;;13.23;;
18142;SDS011;9197;50.930;3.140;2022-11-28T06:55:21;19.83;;;14.43;;
18142;SDS011;9197;50.930;3.140;2022-11-28T06:57:49;22.30;;;13.20;;
18142;SDS011;9197;50.930;3.140;2022-11-28T07:00:16;20.07;;;13.73;;
18142;SDS011;9197;50.930;3.140;2022-11-28T07:02:44;25.17;;;13.43;;
18142;SDS011;9197;50.930;3.140;2022-11-28T07:05:11;15.57;;;12.80;;
18142;SDS011;9197;50.930;3.140;2022-11-28T07:07:40;17.87;;;12.57;;
18142;SDS011;9197;50.930;3.140;2022-11-28T07:10:07;18.43;;;12.63;;
18142;SDS011;9197;50.930;3.140;2022-11-28T07:12:35;17.80;;;12.57;;
18142;SDS011;9197;50.930;3.140;2022-11-28T07:15:04;14.23;;;11.70;;
18142;SDS011;9197;50.930;3.140;2022-11-28T07:17:32;16.23;;;12.40;;
18142;SDS011;9197;50.930;3.140;2022-11-28T07:19:59;20.23;;;12.87;;
18142;SDS011;9197;50.930;3.140;2022-11-28T07:22:27;16.37;;;11.77;;
18142;SDS011;9197;50.930;3.140;2022-11-28T07:24:54;21.50;;;13.17;;
18142;SDS011;9197;50.930;3.140;2022-11-28T07:27:21;18.83;;;11.93;;
18142;SDS011;9197;50.930;3.140;2022-11-28T07:29:48;16.67;;;12.73;;
18142;SDS011;9197;50.930;3.140;2022-11-28T07:32:17;15.40;;;11.27;;
18142;SDS011;9197;50.930;3.140;2022-11-28T07:34:44;23.13;;;11.30;;
18142;SDS011;9197;50.930;3.140;2022-11-28T07:37:11;17.57;;;12.37;;
18142;SDS011;9197;50.930;3.140;2022-11-28T07:39:40;23.53;;;12.20;;
18142;SDS011;9197;50.930;3.140;2022-11-28T07:42:08;20.10;;;13.13;;
18142;SDS011;9197;50.930;3.140;2022-11-28T07:44:35;16.37;;;11.87;;
18142;SDS011;9197;50.930;3.140;2022-11-28T07:47:02;18.97;;;11.90;;
18142;SDS011;9197;50.930;3.140;2022-11-28T07:49:31;19.10;;;11.10;;
18142;SDS011;9197;50.930;3.140;2022-11-28T07:51:58;17.73;;;10.90;;
18142;SDS011;9197;50.930;3.140;2022-11-28T07:54:25;20.00;;;11.37;;
18142;SDS011;9197;50.930;3.140;2022-11-28T07:56:52;16.47;;;11.57;;
18142;SDS011;9197;50.930;3.140;2022-11-28T07:59:19;22.63;;;11.17;;
18142;SDS011;9197;50.930;3.140;2022-11-28T08:01:47;19.17;;;12.63;;
18142;SDS011;9197;50.930;3.140;2022-11-28T08:04:14;21.27;;;10.60;;
18142;SDS011;9197;50.930;3.140;2022-11-28T08:06:42;20.70;;;11.33;;
18142;SDS011;9197;50.930;3.140;2022-11-28T08:09:09;18.70;;;11.60;;
18142;SDS011;9197;50.930;3.140;2022-11-28T08:11:37;18.53;;;12.00;;
18142;SDS011;9197;50.930;3.140;2022-11-28T08:14:04;25.90;;;12.60;;
18142;SDS011;9197;50.930;3.140;2022-11-28T08:16:31;22.57;;;13.50;;
18142;SDS011;9197;50.930;3.140;2022-11-28T08:19:00;20.13;;;12.80;;
18142;SDS011;9197;50.930;3.140;2022-11-28T08:21:28;22.10;;;13.20;;
18142;SDS011;9197;50.930;3.140;2022-11-28T08:23:58;24.50;;;14.40;;
18142;SDS011;9197;50.930;3.140;2022-11-28T08:26:27;22.77;;;14.47;;
18142;SDS011;9197;50.930;3.140;2022-11-28T08:28:54;25.33;;;15.50;;
18142;SDS011;9197;50.930;3.140;2022-11-28T08:31:22;27.10;;;15.20;;
18142;SDS011;9197;50.930;3.140;2022-11-28T08:33:50;32.57;;;16.27;;
18142;SDS011;9197;50.930;3.140;2022-11-28T08:36:18;36.40;;;16.87;;
18142;SDS011;9197;50.930;3.140;2022-11-28T08:38:46;43.60;;;16.90;;
18142;SDS011;9197;50.930;3.140;2022-11-28T08:41:16;30.53;;;18.80;;
18142;SDS011;9197;50.930;3.140;2022-11-28T08:43:43;32.77;;;19.07;;
18142;SDS011;9197;50.930;3.140;2022-11-28T08:46:12;36.80;;;18.70;;
18142;SDS011;9197;50.930;3.140;2022-11-28T08:48:39;39.77;;;19.53;;
18142;SDS011;9197;50.930;3.140;2022-11-28T08:51:07;35.50;;;19.03;;
18142;SDS011;9197;50.930;3.140;2022-11-28T08:53:34;42.40;;;22.20;;
18142;SDS011;9197;50.930;3.140;2022-11-28T08:56:02;39.43;;;20.33;;
18142;SDS011;9197;50.930;3.140;2022-11-28T08:58:30;32.77;;;19.80;;
18142;SDS011;9197;50.930;3.140;2022-11-28T09:00:57;39.93;;;21.73;;
18142;SDS011;9197;50.930;3.140;2022-11-28T09:03:25;51.30;;;25.80;;
18142;SDS011;9197;50.930;3.140;2022-11-28T09:05:52;78.07;;;34.63;;
18142;SDS011;9197;50.930;3.140;2022-11-28T09:08:19;60.23;;;28.67;;
18142;SDS011;9197;50.930;3.140;2022-11-28T09:10:47;58.33;;;28.23;;
18142;SDS011;9197;50.930;3.140;2022-11-28T09:13:14;72.77;;;30.07;;
18142;SDS011;9197;50.930;3.140;2022-11-28T09:15:43;65.77;;;33.73;;
18142;SDS011;9197;50.930;3.140;2022-11-28T09:18:10;78.63;;;38.23;;
18142;SDS011;9197;50.930;3.140;2022-11-28T09:20:38;68.00;;;38.10;;
18142;SDS011;9197;50.930;3.140;2022-11-28T09:23:05;64.03;;;37.23;;
18142;SDS011;9197;50.930;3.140;2022-11-28T09:25:33;57.13;;;32.23;;
18142;SDS011;9197;50.930;3.140;2022-11-28T09:28:00;65.40;;;36.90;;
18142;SDS011;9197;50.930;3.140;2022-11-28T09:30:27;49.27;;;30.57;;
18142;SDS011;9197;50.930;3.140;2022-11-28T09:32:56;47.77;;;30.60;;
18142;SDS011;9197;50.930;3.140;2022-11-28T09:35:23;54.93;;;31.40;;
18142;SDS011;9197;50.930;3.140;2022-11-28T09:37:50;48.60;;;31.03;;
18142;SDS011;9197;50.930;3.140;2022-11-28T09:40:18;50.67;;;31.23;;
18142;SDS011;9197;50.930;3.140;2022-11-28T09:42:47;41.37;;;27.40;;
18142;SDS011;9197;50.930;3.140;2022-11-28T09:45:15;45.77;;;25.47;;
18142;SDS011;9197;50.930;3.140;2022-11-28T09:47:43;36.07;;;23.47;;
18142;SDS011;9197;50.930;3.140;2022-11-28T09:50:13;35.00;;;23.23;;
18142;SDS011;9197;50.930;3.140;2022-11-28T09:52:44;36.33;;;22.53;;
18142;SDS011;9197;50.930;3.140;2022-11-28T09:55:14;33.97;;;20.90;;
18142;SDS011;9197;50.930;3.140;2022-11-28T09:57:43;36.57;;;20.10;;
18142;SDS011;9197;50.930;3.140;2022-11-28T10:00:12;37.87;;;19.10;;
18142;SDS011;9197;50.930;3.140;2022-11-28T10:02:43;41.17;;;21.60;;
18142;SDS011;9197;50.930;3.140;2022-11-28T10:05:16;30.10;;;19.40;;
18142;SDS011;9197;50.930;3.140;2022-11-28T10:07:48;37.73;;;21.50;;
18142;SDS011;9197;50.930;3.140;2022-11-28T10:10:20;33.57;;;19.90;;
18142;SDS011;9197;50.930;3.140;2022-11-28T10:12:53;41.13;;;19.73;;
18142;SDS011;9197;50.930;3.140;2022-11-28T10:18:14;34.07;;;19.33;;
18142;SDS011;9197;50.930;3.140;2022-11-28T10:20:46;36.23;;;21.90;;
18142;SDS011;9197;50.930;3.140;2022-11-28T10:23:15;34.53;;;20.27;;
18142;SDS011;9197;50.930;3.140;2022-11-28T10:25:44;39.47;;;20.33;;
18142;SDS011;9197;50.930;3.140;2022-11-28T10:28:13;35.40;;;20.33;;
18142;SDS011;9197;50.930;3.140;2022-11-28T10:30:41;36.20;;;20.67;;
18142;SDS011;9197;50.930;3.140;2022-11-28T10:33:13;37.13;;;20.93;;
18142;SDS011;9197;50.930;3.140;2022-11-28T10:35:46;34.73;;;19.20;;
18142;SDS011;9197;50.930;3.140;2022-11-28T10:38:15;39.93;;;20.47;;
18142;SDS011;9197;50.930;3.140;2022-11-28T10:40:46;36.67;;;19.10;;
18142;SDS011;9197;50.930;3.140;2022-11-28T10:43:19;30.37;;;18.50;;
18142;SDS011;9197;50.930;3.140;2022-11-28T10:45:51;35.17;;;17.90;;
18142;SDS011;9197;50.930;3.140;2022-11-28T10:48:24;38.97;;;18.37;;
18142;SDS011;9197;50.930;3.140;2022-11-28T10:50:58;31.77;;;17.20;;
18142;SDS011;9197;50.930;3.140;2022-11-28T10:53:36;31.73;;;17.90;;
18142;SDS011;9197;50.930;3.140;2022-11-28T10:56:09;28.57;;;17.60;;
18142;SDS011;9197;50.930;3.140;2022-11-28T10:58:38;35.00;;;19.57;;
18142;SDS011;9197;50.930;3.140;2022-11-28T11:01:08;33.53;;;19.13;;
18142;SDS011;9197;50.930;3.140;2022-11-28T11:03:36;32.87;;;18.67;;
18142;SDS011;9197;50.930;3.140;2022-11-28T11:06:05;30.20;;;18.50;;
18142;SDS011;9197;50.930;3.140;2022-11-28T11:08:33;38.70;;;19.77;;
18142;SDS011;9197;50.930;3.140;2022-11-28T11:11:02;41.67;;;19.67;;
18142;SDS011;9197;50.930;3.140;2022-11-28T11:13:31;36.43;;;19.87;;
18142;SDS011;9197;50.930;3.140;2022-11-28T11:15:59;29.87;;;18.90;;
18142;SDS011;9197;50.930;3.140;2022-11-28T11:18:28;35.37;;;19.33;;
18142;SDS011;9197;50.930;3.140;2022-11-28T11:21:13;34.30;;;19.60;;
18142;SDS011;9197;50.930;3.140;2022-11-28T11:23:41;28.90;;;19.40;;
18142;SDS011;9197;50.930;3.140;2022-11-28T11:26:08;40.60;;;22.27;;
18142;SDS011;9197;50.930;3.140;2022-11-28T11:28:45;33.67;;;20.23;;
18142;SDS011;9197;50.930;3.140;2022-11-28T11:31:16;41.07;;;21.97;;
18142;SDS011;9197;50.930;3.140;2022-11-28T11:33:44;37.30;;;21.33;;
18142;SDS011;9197;50.930;3.140;2022-11-28T11:36:21;30.67;;;21.03;;
18142;SDS011;9197;50.930;3.140;2022-11-28T11:38:48;33.20;;;20.17;;
18142;SDS011;9197;50.930;3.140;2022-11-28T11:41:23;34.70;;;19.90;;
18142;SDS011;9197;50.930;3.140;2022-11-28T11:43:53;27.50;;;19.27;;
18142;SDS011;9197;50.930;3.140;2022-11-28T11:46:20;26.03;;;17.83;;
18142;SDS011;9197;50.930;3.140;2022-11-28T11:48:48;33.40;;;19.20;;
18142;SDS011;9197;50.930;3.140;2022-11-28T11:51:21;32.27;;;18.37;;
18142;SDS011;9197;50.930;3.140;2022-11-28T11:53:58;27.27;;;19.20;;
18142;SDS011;9197;50.930;3.140;2022-11-28T11:56:26;31.00;;;18.57;;
18142;SDS011;9197;50.930;3.140;2022-11-28T11:58:54;29.17;;;17.80;;
18142;SDS011;9197;50.930;3.140;2022-11-28T12:01:22;29.00;;;18.13;;
18142;SDS011;9197;50.930;3.140;2022-11-28T12:03:52;29.40;;;16.97;;
18142;SDS011;9197;50.930;3.140;2022-11-28T12:06:21;28.20;;;19.07;;
18142;SDS011;9197;50.930;3.140;2022-11-28T12:08:51;26.00;;;17.87;;
18142;SDS011;9197;50.930;3.140;2022-11-28T12:11:20;32.87;;;19.07;;
18142;SDS011;9197;50.930;3.140;2022-11-28T12:13:50;26.23;;;16.53;;
18142;SDS011;9197;50.930;3.140;2022-11-28T12:16:24;21.60;;;15.47;;
18142;SDS011;9197;50.930;3.140;2022-11-28T12:18:57;27.27;;;17.03;;
18142;SDS011;9197;50.930;3.140;2022-11-28T12:21:30;27.07;;;17.23;;
18142;SDS011;9197;50.930;3.140;2022-11-28T12:24:06;27.80;;;17.13;;
18142;SDS011;9197;50.930;3.140;2022-11-28T12:26:36;26.97;;;14.47;;
18142;SDS011;9197;50.930;3.140;2022-11-28T12:29:09;28.20;;;15.50;;
18142;SDS011;9197;50.930;3.140;2022-11-28T12:31:43;26.30;;;13.60;;
18142;SDS011;9197;50.930;3.140;2022-11-28T12:34:16;23.93;;;13.23;;
18142;SDS011;9197;50.930;3.140;2022-11-28T12:36:49;25.83;;;13.93;;
18142;SDS011;9197;50.930;3.140;2022-11-28T12:39:22;29.03;;;14.13;;
18142;SDS011;9197;50.930;3.140;2022-11-28T12:42:02;22.97;;;13.40;;
18142;SDS011;9197;50.930;3.140;2022-11-28T12:44:37;21.10;;;13.13;;
18142;SDS011;9197;50.930;3.140;2022-11-28T12:47:07;22.30;;;14.23;;
18142;SDS011;9197;50.930;3.140;2022-11-28T12:49:39;26.70;;;14.93;;
18142;SDS011;9197;50.930;3.140;2022-11-28T12:52:14;26.80;;;14.77;;
18142;SDS011;9197;50.930;3.140;2022-11-28T12:54:50;24.57;;;14.40;;
18142;SDS011;9197;50.930;3.140;2022-11-28T12:57:24;22.77;;;13.50;;
18142;SDS011;9197;50.930;3.140;2022-11-28T12:59:54;17.53;;;13.30;;
18142;SDS011;9197;50.930;3.140;2022-11-28T13:02:26;29.73;;;13.93;;
18142;SDS011;9197;50.930;3.140;2022-11-28T13:07:47;19.80;;;13.20;;
18142;SDS011;9197;50.930;3.140;2022-11-28T13:10:24;26.67;;;13.73;;
18142;SDS011;9197;50.930;3.140;2022-11-28T13:12:54;19.93;;;13.40;;
18142;SDS011;9197;50.930;3.140;2022-11-28T13:15:35;25.93;;;12.83;;
18142;SDS011;9197;50.930;3.140;2022-11-28T13:18:10;33.67;;;14.13;;
18142;SDS011;9197;50.930;3.140;2022-11-28T13:20:41;28.10;;;12.73;;
18142;SDS011;9197;50.930;3.140;2022-11-28T13:23:14;27.80;;;13.20;;
18142;SDS011;9197;50.930;3.140;2022-11-28T13:25:46;23.20;;;12.40;;
18142;SDS011;9197;50.930;3.140;2022-11-28T13:28:16;25.53;;;13.57;;
18142;SDS011;9197;50.930;3.140;2022-11-28T13:30:47;31.17;;;12.00;;
18142;SDS011;9197;50.930;3.140;2022-11-28T13:33:32;26.07;;;10.00;;
18142;SDS011;9197;50.930;3.140;2022-11-28T13:36:01;23.90;;;10.07;;
18142;SDS011;9197;50.930;3.140;2022-11-28T13:38:33;20.47;;;9.93;;
18142;SDS011;9197;50.930;3.140;2022-11-28T13:41:05;23.13;;;10.43;;
18142;SDS011;9197;50.930;3.140;2022-11-28T13:43:38;26.70;;;10.17;;
18142;SDS011;9197;50.930;3.140;2022-11-28T13:46:07;20.93;;;8.83;;
18142;SDS011;9197;50.930;3.140;2022-11-28T13:48:50;21.00;;;10.00;;
18142;SDS011;9197;50.930;3.140;2022-11-28T13:51:18;24.77;;;8.77;;
18142;SDS011;9197;50.930;3.140;2022-11-28T13:53:47;21.03;;;7.93;;
18142;SDS011;9197;50.930;3.140;2022-11-28T13:56:35;20.23;;;7.83;;
18142;SDS011;9197;50.930;3.140;2022-11-28T13:59:02;31.23;;;9.87;;
18142;SDS011;9197;50.930;3.140;2022-11-28T14:01:29;16.17;;;7.70;;
18142;SDS011;9197;50.930;3.140;2022-11-28T14:04:02;20.33;;;7.97;;
18142;SDS011;9197;50.930;3.140;2022-11-28T14:06:43;15.43;;;8.10;;
18142;SDS011;9197;50.930;3.140;2022-11-28T14:09:20;17.43;;;8.47;;
18142;SDS011;9197;50.930;3.140;2022-11-28T14:11:55;14.57;;;8.43;;
18142;SDS011;9197;50.930;3.140;2022-11-28T14:14:28;17.23;;;8.77;;
18142;SDS011;9197;50.930;3.140;2022-11-28T14:17:01;18.47;;;9.53;;
18142;SDS011;9197;50.930;3.140;2022-11-28T14:19:38;13.90;;;7.27;;
18142;SDS011;9197;50.930;3.140;2022-11-28T14:22:14;18.03;;;7.67;;
18142;SDS011;9197;50.930;3.140;2022-11-28T14:24:50;22.33;;;7.53;;
18142;SDS011;9197;50.930;3.140;2022-11-28T14:27:19;20.30;;;8.60;;
18142;SDS011;9197;50.930;3.140;2022-11-28T14:29:48;27.20;;;9.80;;
18142;SDS011;9197;50.930;3.140;2022-11-28T14:32:22;18.83;;;8.47;;
18142;SDS011;9197;50.930;3.140;2022-11-28T14:34:50;17.80;;;7.47;;
18142;SDS011;9197;50.930;3.140;2022-11-28T14:37:46;22.97;;;7.57;;
18142;SDS011;9197;50.930;3.140;2022-11-28T14:43:22;21.40;;;8.23;;
18142;SDS011;9197;50.930;3.140;2022-11-28T14:45:51;21.90;;;7.00;;
18142;SDS011;9197;50.930;3.140;2022-11-28T14:48:27;27.47;;;7.90;;
18142;SDS011;9197;50.930;3.140;2022-11-28T14:50:54;21.80;;;6.77;;
18142;SDS011;9197;50.930;3.140;2022-11-28T14:53:41;17.10;;;6.53;;
18142;SDS011;9197;50.930;3.140;2022-11-28T14:56:23;18.87;;;7.63;;
18142;SDS011;9197;50.930;3.140;2022-11-28T14:58:54;18.73;;;7.10;;
18142;SDS011;9197;50.930;3.140;2022-11-28T15:01:24;17.87;;;8.07;;
18142;SDS011;9197;50.930;3.140;2022-11-28T15:03:56;21.80;;;7.53;;